sensor_id;sensor_type;location;lat;lon;timestamp;pressure;altitude;pressure_sealevel;temperature;humidity
48824;BME280;34640;53.590;10.054;2024-01-30T00:01:01;102338.34;;;5.31;100.00
48824;BME280;34640;53.590;10.054;2024-01-30T00:03:34;102342.28;;;5.28;100.00
48824;BME280;34640;53.590;10.054;2024-01-30T00:06:07;102348.19;;;5.27;100.00
48824;BME280;34640;53.590;10.054;2024-01-30T00:08:41;102351.38;;;5.24;100.00
48824;BME280;34640;53.590;10.054;2024-01-30T00:11:14;102353.22;;;5.25;100.00
48824;BME280;34640;53.590;10.054;2024-01-30T00:13:49;102354.72;;;5.23;100.00
48824;BME280;34640;53.590;10.054;2024-01-30T00:16:22;102347.00;;;5.32;100.00
48824;BME280;34640;53.590;10.054;2024-01-30T00:18:56;102345.63;;;5.27;100.00
48824;BME280;34640;53.590;10.054;2024-01-30T00:21:28;102336.63;;;5.23;100.00
48824;BME280;34640;53.590;10.054;2024-01-30T00:24:01;102337.38;;;5.22;100.00
48824;BME280;34640;53.590;10.054;2024-01-30T00:26:34;102337.03;;;5.19;100.00
48824;BME280;34640;53.590;10.054;2024-01-30T00:29:08;102322.47;;;5.19;100.00
48824;BME280;34640;53.590;10.054;2024-01-30T00:31:41;102329.13;;;5.17;100.00
48824;BME280;34640;53.590;10.054;2024-01-30T00:34:14;102322.28;;;5.18;100.00
48824;BME280;34640;53.590;10.054;2024-01-30T00:36:47;102322.28;;;5.18;100.00
48824;BME280;34640;53.590;10.054;2024-01-30T00:39:20;102327.63;;;5.19;100.00
48824;BME280;34640;53.590;10.054;2024-01-30T00:41:52;102328.38;;;5.18;100.00
48824;BME280;34640;53.590;10.054;2024-01-30T00:44:27;102325.78;;;5.18;100.00
48824;BME280;34640;53.590;10.054;2024-01-30T00:46:59;102323.22;;;5.18;100.00
48824;BME280;34640;53.590;10.054;2024-01-30T00:49:32;102313.22;;;5.21;100.00
48824;BME280;34640;53.590;10.054;2024-01-30T00:52:06;102325.03;;;5.19;100.00
48824;BME280;34640;53.590;10.054;2024-01-30T00:54:39;102317.41;;;5.12;100.00
48824;BME280;34640;53.590;10.054;2024-01-30T00:57:12;102319.50;;;5.08;100.00
48824;BME280;34640;53.590;10.054;2024-01-30T00:59:46;102312.34;;;5.05;100.00
48824;BME280;34640;53.590;10.054;2024-01-30T01:02:19;102330.09;;;5.02;100.00
48824;BME280;34640;53.590;10.054;2024-01-30T01:04:52;102326.94;;;5.05;100.00
48824;BME280;34640;53.590;10.054;2024-01-30T01:07:25;102315.38;;;5.01;100.00
48824;BME280;34640;53.590;10.054;2024-01-30T01:09:58;102332.53;;;5.01;100.00
48824;BME280;34640;53.590;10.054;2024-01-30T01:12:31;102327.91;;;4.98;100.00
48824;BME280;34640;53.590;10.054;2024-01-30T01:15:06;102329.94;;;5.01;100.00
48824;BME280;34640;53.590;10.054;2024-01-30T01:17:41;102334.75;;;4.98;100.00
48824;BME280;34640;53.590;10.054;2024-01-30T01:20:14;102334.50;;;5.03;100.00
48824;BME280;34640;53.590;10.054;2024-01-30T01:22:47;102334.50;;;5.03;100.00
48824;BME280;34640;53.590;10.054;2024-01-30T01:25:20;102337.69;;;5.01;100.00
48824;BME280;34640;53.590;10.054;2024-01-30T01:27:53;102336.03;;;5.01;100.00
48824;BME280;34640;53.590;10.054;2024-01-30T01:30:28;102336.03;;;5.01;100.00
48824;BME280;34640;53.590;10.054;2024-01-30T01:33:02;102327.38;;;5.01;100.00
48824;BME280;34640;53.590;10.054;2024-01-30T01:35:35;102327.91;;;4.98;100.00
48824;BME280;34640;53.590;10.054;2024-01-30T01:38:08;102328.81;;;4.99;100.00
48824;BME280;34640;53.590;10.054;2024-01-30T01:40:41;102323.34;;;4.96;100.00
48824;BME280;34640;53.590;10.054;2024-01-30T01:43:15;102327.00;;;4.98;100.00
48824;BME280;34640;53.590;10.054;2024-01-30T01:45:50;102326.84;;;4.96;100.00
48824;BME280;34640;53.590;10.054;2024-01-30T01:48:22;102325.75;;;4.94;100.00
48824;BME280;34640;53.590;10.054;2024-01-30T01:50:56;102320.44;;;4.93;100.00
48824;BME280;34640;53.590;10.054;2024-01-30T01:53:29;102316.94;;;4.92;100.00
48824;BME280;34640;53.590;10.054;2024-01-30T01:56:03;102313.28;;;4.90;100.00
48824;BME280;34640;53.590;10.054;2024-01-30T01:58:37;102323.28;;;4.87;100.00
48824;BME280;34640;53.590;10.054;2024-01-30T02:01:12;102321.31;;;4.84;100.00
48824;BME280;34640;53.590;10.054;2024-01-30T02:03:46;102316.13;;;4.84;100.00
48824;BME280;34640;53.590;10.054;2024-01-30T02:06:20;102304.31;;;4.86;100.00
48824;BME280;34640;53.590;10.054;2024-01-30T02:08:53;102310.88;;;4.91;100.00
48824;BME280;34640;53.590;10.054;2024-01-30T02:11:26;102301.28;;;4.90;100.00
48824;BME280;34640;53.590;10.054;2024-01-30T02:14:02;102290.97;;;4.90;100.00
48824;BME280;34640;53.590;10.054;2024-01-30T02:16:36;102287.31;;;4.88;100.00
48824;BME280;34640;53.590;10.054;2024-01-30T02:19:09;102281.56;;;4.91;100.00
48824;BME280;34640;53.590;10.054;2024-01-30T02:21:45;102288.56;;;4.92;100.00
48824;BME280;34640;53.590;10.054;2024-01-30T02:24:18;102279.72;;;4.90;100.00
48824;BME280;34640;53.590;10.054;2024-01-30T02:26:52;102275.91;;;4.86;100.00
48824;BME280;34640;53.590;10.054;2024-01-30T02:29:24;102271.25;;;4.91;100.00
48824;BME280;34640;53.590;10.054;2024-01-30T02:31:58;102267.75;;;4.90;100.00
48824;BME280;34640;53.590;10.054;2024-01-30T02:34:31;102268.50;;;4.89;100.00
48824;BME280;34640;53.590;10.054;2024-01-30T02:37:05;102266.41;;;4.94;100.00
48824;BME280;34640;53.590;10.054;2024-01-30T02:39:38;102271.56;;;4.94;100.00
48824;BME280;34640;53.590;10.054;2024-01-30T02:42:11;102262.41;;;4.89;100.00
48824;BME280;34640;53.590;10.054;2024-01-30T02:44:44;102268.66;;;4.91;100.00
48824;BME280;34640;53.590;10.054;2024-01-30T02:47:17;102264.13;;;4.97;100.00
48824;BME280;34640;53.590;10.054;2024-01-30T02:49:50;102263.22;;;4.97;100.00
48824;BME280;34640;53.590;10.054;2024-01-30T02:52:28;102256.97;;;4.95;100.00
48824;BME280;34640;53.590;10.054;2024-01-30T02:55:01;102258.97;;;4.97;100.00
48824;BME280;34640;53.590;10.054;2024-01-30T02:57:34;102258.22;;;4.98;100.00
48824;BME280;34640;53.590;10.054;2024-01-30T03:00:08;102258.56;;;5.01;100.00
48824;BME280;34640;53.590;10.054;2024-01-30T03:03:06;102259.56;;;4.95;100.00
48824;BME280;34640;53.590;10.054;2024-01-30T03:05:38;102256.66;;;4.91;100.00
48824;BME280;34640;53.590;10.054;2024-01-30T03:08:13;102259.56;;;4.95;100.00
48824;BME280;34640;53.590;10.054;2024-01-30T03:10:46;102254.41;;;4.95;100.00
48824;BME280;34640;53.590;10.054;2024-01-30T03:13:19;102255.91;;;4.93;100.00
48824;BME280;34640;53.590;10.054;2024-01-30T03:15:52;102246.19;;;4.90;100.00
48824;BME280;34640;53.590;10.054;2024-01-30T03:18:25;102255.59;;;4.89;100.00
48824;BME280;34640;53.590;10.054;2024-01-30T03:20:58;102245.84;;;4.87;100.00
48824;BME280;34640;53.590;10.054;2024-01-30T03:23:32;102241.28;;;4.84;100.00
48824;BME280;34640;53.590;10.054;2024-01-30T03:26:05;102242.03;;;4.83;100.00
48824;BME280;34640;53.590;10.054;2024-01-30T03:28:38;102242.78;;;4.82;100.00
48824;BME280;34640;53.590;10.054;2024-01-30T03:31:14;102233.81;;;4.79;100.00
48824;BME280;34640;53.590;10.054;2024-01-30T03:33:47;102244.91;;;4.78;100.00
48824;BME280;34640;53.590;10.054;2024-01-30T03:36:20;102240.44;;;4.77;100.00
48824;BME280;34640;53.590;10.054;2024-01-30T03:38:54;102233.66;;;4.77;100.00
48824;BME280;34640;53.590;10.054;2024-01-30T03:41:27;102238.31;;;4.73;100.00
48824;BME280;34640;53.590;10.054;2024-01-30T03:44:00;102233.75;;;4.70;100.00
48824;BME280;34640;53.590;10.054;2024-01-30T03:46:33;102226.00;;;4.70;100.00
48824;BME280;34640;53.590;10.054;2024-01-30T03:49:06;102234.81;;;4.72;100.00
48824;BME280;34640;53.590;10.054;2024-01-30T03:51:39;102232.66;;;4.68;100.00
48824;BME280;34640;53.590;10.054;2024-01-30T03:54:14;102226.59;;;4.68;100.00
48824;BME280;34640;53.590;10.054;2024-01-30T03:56:46;102221.47;;;4.76;100.00
48824;BME280;34640;53.590;10.054;2024-01-30T03:59:19;102217.41;;;4.78;100.00
48824;BME280;34640;53.590;10.054;2024-01-30T04:01:56;102214.84;;;4.78;100.00
48824;BME280;34640;53.590;10.054;2024-01-30T04:04:29;102216.91;;;4.74;100.00
48824;BME280;34640;53.590;10.054;2024-01-30T04:07:03;102218.41;;;4.72;100.00
48824;BME280;34640;53.590;10.054;2024-01-30T04:09:38;102213.69;;;4.68;100.00
48824;BME280;34640;53.590;10.054;2024-01-30T04:12:11;102215.34;;;4.67;100.00
48824;BME280;34640;53.590;10.054;2024-01-30T04:14:43;102209.44;;;4.68;100.00
48824;BME280;34640;53.590;10.054;2024-01-30T04:17:16;102214.00;;;4.71;100.00
48824;BME280;34640;53.590;10.054;2024-01-30T04:19:49;102211.09;;;4.68;100.00
48824;BME280;34640;53.590;10.054;2024-01-30T04:22:22;102220.34;;;4.66;100.00
48824;BME280;34640;53.590;10.054;2024-01-30T04:24:56;102225.94;;;4.62;100.00
48824;BME280;34640;53.590;10.054;2024-01-30T04:27:30;102227.78;;;4.63;100.00
48824;BME280;34640;53.590;10.054;2024-01-30T04:30:03;102231.53;;;4.57;100.00
48824;BME280;34640;53.590;10.054;2024-01-30T04:32:36;102219.13;;;4.62;100.00
48824;BME280;34640;53.590;10.054;2024-01-30T04:35:10;102227.78;;;4.63;100.00
48824;BME280;34640;53.590;10.054;2024-01-30T04:37:43;102228.38;;;4.60;100.00
48824;BME280;34640;53.590;10.054;2024-01-30T04:40:17;102242.78;;;4.58;100.00
48824;BME280;34640;53.590;10.054;2024-01-30T04:42:50;102245.19;;;4.56;100.00
48824;BME280;34640;53.590;10.054;2024-01-30T04:45:23;102235.50;;;4.63;100.00
48824;BME280;34640;53.590;10.054;2024-01-30T04:47:56;102240.03;;;4.56;100.00
48824;BME280;34640;53.590;10.054;2024-01-30T04:50:29;102234.13;;;4.57;100.00
48824;BME280;34640;53.590;10.054;2024-01-30T04:53:02;102235.19;;;4.59;100.00
48824;BME280;34640;53.590;10.054;2024-01-30T04:55:36;102228.38;;;4.60;100.00
48824;BME280;34640;53.590;10.054;2024-01-30T04:58:15;102228.03;;;4.57;100.00
48824;BME280;34640;53.590;10.054;2024-01-30T05:00:48;102225.47;;;4.57;100.00
48824;BME280;34640;53.590;10.054;2024-01-30T05:03:23;102221.53;;;4.60;100.00
48824;BME280;34640;53.590;10.054;2024-01-30T05:05:56;102227.28;;;4.58;100.00
48824;BME280;34640;53.590;10.054;2024-01-30T05:08:29;102227.44;;;4.59;100.00
48824;BME280;34640;53.590;10.054;2024-01-30T05:11:04;102228.03;;;4.57;100.00
48824;BME280;34640;53.590;10.054;2024-01-30T05:13:38;102227.13;;;4.56;100.00
48824;BME280;34640;53.590;10.054;2024-01-30T05:16:10;102228.03;;;4.57;100.00
48824;BME280;34640;53.590;10.054;2024-01-30T05:18:44;102229.50;;;4.55;100.00
48824;BME280;34640;53.590;10.054;2024-01-30T05:21:17;102227.13;;;4.56;100.00
48824;BME280;34640;53.590;10.054;2024-01-30T05:23:50;102219.56;;;4.58;100.00
48824;BME280;34640;53.590;10.054;2024-01-30T05:26:24;102227.44;;;4.59;100.00
48824;BME280;34640;53.590;10.054;2024-01-30T05:28:58;102225.19;;;4.63;100.00
48824;BME280;34640;53.590;10.054;2024-01-30T05:31:31;102226.84;;;4.62;100.00
48824;BME280;34640;53.590;10.054;2024-01-30T05:34:04;102224.13;;;4.60;100.00
48824;BME280;34640;53.590;10.054;2024-01-30T05:36:38;102220.47;;;4.58;100.00
48824;BME280;34640;53.590;10.054;2024-01-30T05:39:11;102221.22;;;4.57;100.00
48824;BME280;34640;53.590;10.054;2024-01-30T05:41:47;102222.28;;;4.59;100.00
48824;BME280;34640;53.590;10.054;2024-01-30T05:44:20;102221.97;;;4.56;100.00
48824;BME280;34640;53.590;10.054;2024-01-30T05:46:53;102208.31;;;4.57;100.00
48824;BME280;34640;53.590;10.054;2024-01-30T05:49:26;102213.78;;;4.60;100.00
48824;BME280;34640;53.590;10.054;2024-01-30T05:51:59;102208.16;;;4.56;100.00
48824;BME280;34640;53.590;10.054;2024-01-30T05:54:32;102198.00;;;4.57;100.00
48824;BME280;34640;53.590;10.054;2024-01-30T05:57:06;102194.34;;;4.55;100.00
48824;BME280;34640;53.590;10.054;2024-01-30T05:59:40;102200.81;;;4.52;100.00
48824;BME280;34640;53.590;10.054;2024-01-30T06:02:13;102198.91;;;4.58;100.00
48824;BME280;34640;53.590;10.054;2024-01-30T06:04:46;102199.41;;;4.63;100.00
48824;BME280;34640;53.590;10.054;2024-01-30T06:07:19;102205.75;;;4.57;100.00
48824;BME280;34640;53.590;10.054;2024-01-30T06:09:52;102192.75;;;4.49;100.00
48824;BME280;34640;53.590;10.054;2024-01-30T06:12:27;102202.31;;;4.50;100.00
48824;BME280;34640;53.590;10.054;2024-01-30T06:15:00;102199.75;;;4.50;100.00
48824;BME280;34640;53.590;10.054;2024-01-30T06:17:33;102185.59;;;4.46;100.00
48824;BME280;34640;53.590;10.054;2024-01-30T06:20:07;102191.50;;;4.45;100.00
48824;BME280;34640;53.590;10.054;2024-01-30T06:22:40;102185.94;;;4.49;100.00
48824;BME280;34640;53.590;10.054;2024-01-30T06:25:14;102184.25;;;4.50;100.00
48824;BME280;34640;53.590;10.054;2024-01-30T06:27:49;102180.94;;;4.51;100.00
48824;BME280;34640;53.590;10.054;2024-01-30T06:30:22;102178.34;;;4.51;100.00
48824;BME280;34640;53.590;10.054;2024-01-30T06:32:55;102178.88;;;4.55;100.00
48824;BME280;34640;53.590;10.054;2024-01-30T06:35:29;102178.44;;;4.59;100.00
48824;BME280;34640;53.590;10.054;2024-01-30T06:38:02;102178.28;;;4.58;100.00
48824;BME280;34640;53.590;10.054;2024-01-30T06:40:36;102171.44;;;4.58;100.00
48824;BME280;34640;53.590;10.054;2024-01-30T06:43:10;102182.09;;;4.62;100.00
48824;BME280;34640;53.590;10.054;2024-01-30T06:45:43;102182.41;;;4.65;100.00
48824;BME280;34640;53.590;10.054;2024-01-30T06:48:16;102176.66;;;4.67;100.00
48824;BME280;34640;53.590;10.054;2024-01-30T06:50:49;102181.22;;;4.70;100.00
48824;BME280;34640;53.590;10.054;2024-01-30T06:53:22;102171.97;;;4.72;100.00
48824;BME280;34640;53.590;10.054;2024-01-30T06:55:55;102180.78;;;4.74;100.00
48824;BME280;34640;53.590;10.054;2024-01-30T06:58:29;102171.22;;;4.73;100.00
48824;BME280;34640;53.590;10.054;2024-01-30T07:01:04;102179.88;;;4.73;100.00
48824;BME280;34640;53.590;10.054;2024-01-30T07:03:37;102177.13;;;4.72;100.00
48824;BME280;34640;53.590;10.054;2024-01-30T07:06:10;102175.47;;;4.72;100.00
48824;BME280;34640;53.590;10.054;2024-01-30T07:08:43;102169.06;;;4.69;100.00
48824;BME280;34640;53.590;10.054;2024-01-30T07:11:18;102165.75;;;4.70;100.00
48824;BME280;34640;53.590;10.054;2024-01-30T07:13:54;102169.97;;;4.69;100.00
48824;BME280;34640;53.590;10.054;2024-01-30T07:16:27;102172.88;;;4.72;100.00
48824;BME280;34640;53.590;10.054;2024-01-30T07:19:00;102167.09;;;4.66;100.00
48824;BME280;34640;53.590;10.054;2024-01-30T07:21:34;102176.94;;;4.62;100.00
48824;BME280;34640;53.590;10.054;2024-01-30T07:24:07;102168.44;;;4.63;100.00
48824;BME280;34640;53.590;10.054;2024-01-30T07:26:40;102172.09;;;4.65;100.00
48824;BME280;34640;53.590;10.054;2024-01-30T07:29:15;102164.34;;;4.65;100.00
48824;BME280;34640;53.590;10.054;2024-01-30T07:31:47;102167.25;;;4.68;100.00
48824;BME280;34640;53.590;10.054;2024-01-30T07:34:20;102157.84;;;4.68;100.00
48824;BME280;34640;53.590;10.054;2024-01-30T07:36:53;102160.72;;;4.71;100.00
48824;BME280;34640;53.590;10.054;2024-01-30T07:39:27;102162.56;;;4.72;100.00
48824;BME280;34640;53.590;10.054;2024-01-30T07:42:00;102173.19;;;4.75;100.00
48824;BME280;34640;53.590;10.054;2024-01-30T07:44:37;102167.94;;;4.82;100.00
48824;BME280;34640;53.590;10.054;2024-01-30T07:47:10;102172.34;;;4.83;100.00
48824;BME280;34640;53.590;10.054;2024-01-30T07:49:43;102167.50;;;4.86;100.00
48824;BME280;34640;53.590;10.054;2024-01-30T07:52:16;102178.91;;;4.88;100.00
48824;BME280;34640;53.590;10.054;2024-01-30T07:55:10;102167.22;;;4.92;100.00
48824;BME280;34640;53.590;10.054;2024-01-30T07:57:44;102171.72;;;5.02;100.00
48824;BME280;34640;53.590;10.054;2024-01-30T08:00:19;102178.25;;;5.07;100.00
48824;BME280;34640;53.590;10.054;2024-01-30T08:02:53;102174.31;;;5.10;100.00
48824;BME280;34640;53.590;10.054;2024-01-30T08:05:27;102166.56;;;5.10;100.00
48824;BME280;34640;53.590;10.054;2024-01-30T08:08:00;102172.97;;;5.14;100.00
48824;BME280;34640;53.590;10.054;2024-01-30T08:10:38;102165.84;;;5.20;100.00
48824;BME280;34640;53.590;10.054;2024-01-30T08:13:11;102166.94;;;5.22;100.00
48824;BME280;34640;53.590;10.054;2024-01-30T08:15:45;102160.09;;;5.22;100.00
48824;BME280;34640;53.590;10.054;2024-01-30T08:18:18;102166.22;;;5.32;100.00
48824;BME280;34640;53.590;10.054;2024-01-30T08:20:51;102159.69;;;5.35;100.00
48824;BME280;34640;53.590;10.054;2024-01-30T08:23:24;102156.50;;;5.38;100.00
48824;BME280;34640;53.590;10.054;2024-01-30T08:25:57;102164.91;;;5.44;100.00
48824;BME280;34640;53.590;10.054;2024-01-30T08:28:30;102165.66;;;5.51;100.00
48824;BME280;34640;53.590;10.054;2024-01-30T08:31:04;102161.28;;;5.59;100.00
48824;BME280;34640;53.590;10.054;2024-01-30T08:33:37;102160.66;;;5.62;100.00
48824;BME280;34640;53.590;10.054;2024-01-30T08:36:16;102156.75;;;5.65;100.00
48824;BME280;34640;53.590;10.054;2024-01-30T08:38:49;102156.00;;;5.66;100.00
48824;BME280;34640;53.590;10.054;2024-01-30T08:41:27;102155.69;;;5.72;100.00
48824;BME280;34640;53.590;10.054;2024-01-30T08:44:00;102157.38;;;5.80;100.00
48824;BME280;34640;53.590;10.054;2024-01-30T08:46:34;102147.66;;;5.86;100.00
48824;BME280;34640;53.590;10.054;2024-01-30T08:49:07;102151.50;;;5.90;100.00
48824;BME280;34640;53.590;10.054;2024-01-30T08:51:40;102147.25;;;5.99;100.00
48824;BME280;34640;53.590;10.054;2024-01-30T08:54:14;102138.25;;;6.04;100.00
48824;BME280;34640;53.590;10.054;2024-01-30T08:56:47;102136.16;;;6.08;100.00
48824;BME280;34640;53.590;10.054;2024-01-30T08:59:20;102124.75;;;6.15;100.00
48824;BME280;34640;53.590;10.054;2024-01-30T09:01:54;102120.91;;;6.20;100.00
48824;BME280;34640;53.590;10.054;2024-01-30T09:04:42;102112.84;;;6.34;100.00
48824;BME280;34640;53.590;10.054;2024-01-30T09:07:15;102101.84;;;6.46;100.00
48824;BME280;34640;53.590;10.054;2024-01-30T09:09:48;102106.13;;;6.54;100.00
48824;BME280;34640;53.590;10.054;2024-01-30T09:12:21;102106.69;;;6.68;100.00
48824;BME280;34640;53.590;10.054;2024-01-30T09:14:54;102103.03;;;6.75;100.00
48824;BME280;34640;53.590;10.054;2024-01-30T09:17:28;102112.28;;;6.82;100.00
48824;BME280;34640;53.590;10.054;2024-01-30T09:20:02;102117.03;;;6.77;100.00
48824;BME280;34640;53.590;10.054;2024-01-30T09:22:35;102120.09;;;6.73;100.00
48824;BME280;34640;53.590;10.054;2024-01-30T09:25:08;102125.56;;;6.76;100.00
48824;BME280;34640;53.590;10.054;2024-01-30T09:27:41;102127.69;;;6.80;100.00
48824;BME280;34640;53.590;10.054;2024-01-30T09:30:15;102129.66;;;6.83;100.00
48824;BME280;34640;53.590;10.054;2024-01-30T09:32:49;102145.63;;;6.87;100.00
48824;BME280;34640;53.590;10.054;2024-01-30T09:35:22;102141.00;;;6.93;100.00
48824;BME280;34640;53.590;10.054;2024-01-30T09:37:55;102145.75;;;6.97;100.00
48824;BME280;34640;53.590;10.054;2024-01-30T09:40:29;102154.44;;;6.98;100.00
48824;BME280;34640;53.590;10.054;2024-01-30T09:43:02;102149.88;;;6.95;100.00
48824;BME280;34640;53.590;10.054;2024-01-30T09:45:36;102155.31;;;7.07;100.00
48824;BME280;34640;53.590;10.054;2024-01-30T09:48:11;102146.63;;;7.07;100.00
48824;BME280;34640;53.590;10.054;2024-01-30T09:50:44;102153.97;;;7.02;100.00
48824;BME280;34640;53.590;10.054;2024-01-30T09:53:20;102149.06;;;7.05;100.00
48824;BME280;34640;53.590;10.054;2024-01-30T09:55:55;102142.09;;;6.95;100.00
48824;BME280;34640;53.590;10.054;2024-01-30T09:58:28;102136.31;;;6.98;100.00
48824;BME280;34640;53.590;10.054;2024-01-30T10:01:02;102136.41;;;7.08;100.00
48824;BME280;34640;53.590;10.054;2024-01-30T10:03:36;102133.03;;;7.09;100.00
48824;BME280;34640;53.590;10.054;2024-01-30T10:06:09;102126.19;;;7.10;100.00
48824;BME280;34640;53.590;10.054;2024-01-30T10:08:43;102125.25;;;7.18;100.00
48824;BME280;34640;53.590;10.054;2024-01-30T10:11:16;102117.91;;;7.22;100.00
48824;BME280;34640;53.590;10.054;2024-01-30T10:13:49;102109.66;;;7.26;100.00
48824;BME280;34640;53.590;10.054;2024-01-30T10:16:22;102115.56;;;7.34;100.00
48824;BME280;34640;53.590;10.054;2024-01-30T10:18:58;102111.91;;;7.32;100.00
48824;BME280;34640;53.590;10.054;2024-01-30T10:21:31;102111.59;;;7.38;100.00
48824;BME280;34640;53.590;10.054;2024-01-30T10:24:04;102110.91;;;7.49;100.00
48824;BME280;34640;53.590;10.054;2024-01-30T10:26:38;102118.63;;;7.57;100.00
48824;BME280;34640;53.590;10.054;2024-01-30T10:29:12;102122.44;;;7.61;100.00
48824;BME280;34640;53.590;10.054;2024-01-30T10:31:45;102109.25;;;7.68;100.00
48824;BME280;34640;53.590;10.054;2024-01-30T10:34:20;102112.63;;;7.67;100.00
48824;BME280;34640;53.590;10.054;2024-01-30T10:37:07;102105.03;;;7.79;100.00
48824;BME280;34640;53.590;10.054;2024-01-30T10:39:45;102094.97;;;7.82;100.00
48824;BME280;34640;53.590;10.054;2024-01-30T10:42:19;102092.22;;;7.80;100.00
48824;BME280;34640;53.590;10.054;2024-01-30T10:44:57;102092.84;;;7.78;100.00
48824;BME280;34640;53.590;10.054;2024-01-30T10:47:34;102098.81;;;7.77;100.00
48824;BME280;34640;53.590;10.054;2024-01-30T10:50:09;102097.34;;;7.89;100.00
48824;BME280;34640;53.590;10.054;2024-01-30T10:52:44;102088.66;;;7.88;100.00
48824;BME280;34640;53.590;10.054;2024-01-30T10:55:18;102095.09;;;8.02;100.00
48824;BME280;34640;53.590;10.054;2024-01-30T10:57:52;102092.31;;;8.09;100.00
48824;BME280;34640;53.590;10.054;2024-01-30T11:00:26;102091.72;;;8.22;100.00
48824;BME280;34640;53.590;10.054;2024-01-30T11:03:00;102085.91;;;8.24;100.00
48824;BME280;34640;53.590;10.054;2024-01-30T11:05:34;102087.09;;;8.28;100.00
48824;BME280;34640;53.590;10.054;2024-01-30T11:08:12;102088.22;;;8.21;100.00
48824;BME280;34640;53.590;10.054;2024-01-30T11:10:46;102088.00;;;8.28;100.00
48824;BME280;34640;53.590;10.054;2024-01-30T11:13:19;102084.91;;;8.33;100.00
48824;BME280;34640;53.590;10.054;2024-01-30T11:15:52;102085.63;;;8.40;100.00
48824;BME280;34640;53.590;10.054;2024-01-30T11:18:26;102083.59;;;8.46;100.00
48824;BME280;34640;53.590;10.054;2024-01-30T11:21:04;102091.44;;;8.38;100.00
48824;BME280;34640;53.590;10.054;2024-01-30T11:23:38;102091.59;;;8.39;100.00
48824;BME280;34640;53.590;10.054;2024-01-30T11:26:11;102067.91;;;8.55;100.00
48824;BME280;34640;53.590;10.054;2024-01-30T11:28:52;102078.84;;;8.61;100.00
48824;BME280;34640;53.590;10.054;2024-01-30T11:31:25;102076.38;;;8.63;100.00
48824;BME280;34640;53.590;10.054;2024-01-30T11:33:59;102095.06;;;8.58;100.00
48824;BME280;34640;53.590;10.054;2024-01-30T11:36:34;102088.44;;;8.62;100.00
48824;BME280;34640;53.590;10.054;2024-01-30T11:39:09;102076.88;;;8.58;100.00
48824;BME280;34640;53.590;10.054;2024-01-30T11:41:43;102082.59;;;8.54;100.00
48824;BME280;34640;53.590;10.054;2024-01-30T11:44:18;102070.13;;;8.61;100.00
48824;BME280;34640;53.590;10.054;2024-01-30T11:46:52;102066.25;;;8.66;100.00
48824;BME280;34640;53.590;10.054;2024-01-30T11:49:25;102067.88;;;8.84;100.00
48824;BME280;34640;53.590;10.054;2024-01-30T11:52:00;102070.34;;;8.82;100.00
48824;BME280;34640;53.590;10.054;2024-01-30T11:54:33;102071.09;;;8.81;100.00
48824;BME280;34640;53.590;10.054;2024-01-30T11:57:05;102072.41;;;8.86;100.00
48824;BME280;34640;53.590;10.054;2024-01-30T11:59:38;102064.34;;;8.83;100.00
48824;BME280;34640;53.590;10.054;2024-01-30T12:02:15;102062.44;;;8.91;100.00
48824;BME280;34640;53.590;10.054;2024-01-30T12:04:49;102061.38;;;8.89;100.00
48824;BME280;34640;53.590;10.054;2024-01-30T12:07:23;102067.25;;;8.97;100.00
48824;BME280;34640;53.590;10.054;2024-01-30T12:09:56;102052.31;;;8.94;100.00
48824;BME280;34640;53.590;10.054;2024-01-30T12:12:30;102064.78;;;8.98;100.00
48824;BME280;34640;53.590;10.054;2024-01-30T12:15:03;102065.97;;;9.02;100.00
48824;BME280;34640;53.590;10.054;2024-01-30T12:17:37;102064.00;;;8.99;100.00
48824;BME280;34640;53.590;10.054;2024-01-30T12:20:11;102055.06;;;9.06;100.00
48824;BME280;34640;53.590;10.054;2024-01-30T12:22:47;102059.84;;;9.01;100.00
48824;BME280;34640;53.590;10.054;2024-01-30T12:25:21;102062.59;;;9.03;100.00
48824;BME280;34640;53.590;10.054;2024-01-30T12:27:55;102057.44;;;9.13;100.00
48824;BME280;34640;53.590;10.054;2024-01-30T12:30:28;102052.09;;;9.11;100.00
48824;BME280;34640;53.590;10.054;2024-01-30T12:33:01;102044.56;;;9.14;100.00
48824;BME280;34640;53.590;10.054;2024-01-30T12:35:36;102049.22;;;9.18;100.00
48824;BME280;34640;53.590;10.054;2024-01-30T12:38:24;102039.75;;;9.19;100.00
48824;BME280;34640;53.590;10.054;2024-01-30T12:40:57;102041.69;;;9.22;100.00
48824;BME280;34640;53.590;10.054;2024-01-30T12:43:30;102046.38;;;9.26;100.00
48824;BME280;34640;53.590;10.054;2024-01-30T12:46:09;102049.78;;;9.35;100.00
48824;BME280;34640;53.590;10.054;2024-01-30T12:48:42;102046.78;;;9.40;100.00
48824;BME280;34640;53.590;10.054;2024-01-30T12:51:15;102045.84;;;9.50;100.00
48824;BME280;34640;53.590;10.054;2024-01-30T12:53:49;102052.09;;;9.62;100.00
48824;BME280;34640;53.590;10.054;2024-01-30T12:56:22;102046.13;;;9.63;100.00
48824;BME280;34640;53.590;10.054;2024-01-30T12:58:55;102051.28;;;9.73;100.00
48824;BME280;34640;53.590;10.054;2024-01-30T13:01:28;102045.97;;;9.82;100.00
48824;BME280;34640;53.590;10.054;2024-01-30T13:04:02;102042.94;;;9.88;100.00
48824;BME280;34640;53.590;10.054;2024-01-30T13:06:35;102047.88;;;9.95;100.00
48824;BME280;34640;53.590;10.054;2024-01-30T13:09:09;102047.88;;;9.95;100.00
48824;BME280;34640;53.590;10.054;2024-01-30T13:11:43;102044.75;;;9.99;100.00
48824;BME280;34640;53.590;10.054;2024-01-30T13:14:16;102060.38;;;9.99;100.00